createdAt,value
2023-03-23T15:59:51.423Z,2.35
2023-03-23T16:02:22.907Z,2.20
2023-03-23T16:04:53.090Z,2.38
2023-03-23T16:07:24.580Z,2.20
2023-03-23T16:09:52.361Z,2.33
2023-03-23T16:12:20.197Z,3.30
2023-03-23T16:14:48.028Z,2.35
2023-03-23T16:17:19.514Z,2.63
2023-03-23T16:19:47.202Z,3.17
2023-03-23T16:22:17.391Z,2.30
2023-03-23T16:24:46.434Z,2.60
2023-03-23T16:27:14.641Z,2.58
2023-03-23T16:30:02.271Z,3.70
2023-03-23T16:32:30.716Z,3.50
2023-03-23T16:34:58.472Z,3.67
2023-03-23T16:37:27.452Z,3.13
2023-03-23T16:39:55.219Z,2.78
2023-03-23T16:42:23.058Z,2.90
2023-03-23T16:44:50.922Z,3.22
2023-03-23T16:47:23.258Z,2.58
2023-03-23T16:49:51.493Z,2.60
2023-03-23T16:52:19.323Z,3.05
2023-03-23T16:54:48.503Z,2.90
2023-03-23T16:57:16.611Z,3.05
2023-03-23T16:59:44.538Z,2.85
2023-03-23T17:02:12.672Z,2.88
2023-03-23T17:04:44.510Z,2.70
2023-03-23T17:07:12.375Z,2.80
2023-03-23T17:09:42.700Z,2.65
2023-03-23T17:12:11.934Z,2.60
2023-03-23T17:14:39.556Z,3.35
2023-03-23T17:17:10.725Z,3.20
2023-03-23T17:19:38.633Z,3.45
2023-03-23T17:22:06.785Z,3.33
2023-03-23T17:24:34.477Z,3.70
2023-03-23T17:27:02.153Z,3.33
2023-03-23T17:29:31.527Z,3.05
2023-03-23T17:31:59.395Z,3.30
2023-03-23T17:34:29.106Z,3.53
2023-03-23T17:36:56.776Z,3.67
2023-03-23T17:39:24.448Z,3.20
2023-03-23T17:41:52.116Z,3.22
2023-03-23T17:44:20.195Z,3.05
2023-03-23T17:46:49.342Z,3.50
2023-03-23T17:49:17.353Z,3.33
2023-03-23T17:51:45.679Z,3.47
2023-03-23T17:54:13.391Z,3.20
2023-03-23T17:56:41.284Z,4.22
2023-03-23T17:59:09.040Z,3.22
2023-03-23T18:01:36.800Z,2.88
2023-03-23T18:04:06.198Z,3.45
2023-03-23T18:06:34.024Z,2.38
2023-03-23T18:09:03.450Z,2.80
2023-03-23T18:11:31.193Z,2.30
2023-03-23T18:13:59.054Z,2.65
2023-03-23T18:16:27.525Z,2.50
2023-03-23T18:18:56.401Z,2.83
2023-03-23T18:21:26.977Z,2.22
2023-03-23T18:23:59.844Z,3.17
2023-03-23T18:26:29.189Z,2.92
2023-03-23T18:28:57.220Z,2.60
2023-03-23T18:31:25.001Z,2.70
2023-03-23T18:33:54.900Z,2.38
2023-03-23T18:36:26.132Z,2.40
2023-03-23T18:38:59.411Z,2.97
2023-03-23T18:41:27.606Z,2.85
2023-03-23T18:43:58.361Z,2.42
2023-03-23T18:46:26.509Z,2.30
2023-03-23T18:48:54.314Z,2.55
2023-03-23T18:51:22.096Z,2.38
2023-03-23T18:53:51.207Z,3.00
2023-03-23T18:56:19.327Z,2.55
2023-03-23T18:58:47.357Z,2.50
2023-03-23T19:01:17.494Z,2.53
2023-03-23T19:03:46.087Z,2.50
2023-03-23T19:06:18.143Z,2.70
2023-03-23T19:08:46.755Z,2.45
2023-03-23T19:11:16.450Z,2.90
2023-03-23T19:13:53.857Z,2.60
2023-03-23T19:16:28.986Z,2.83
2023-03-23T19:18:56.685Z,2.72
2023-03-23T19:21:25.792Z,2.58
2023-03-23T19:23:54.030Z,2.50
2023-03-23T19:26:27.725Z,2.90
2023-03-23T19:29:24.516Z,2.70
2023-03-23T19:31:44.817Z,2.42
2023-03-23T19:34:14.676Z,2.90
2023-03-23T19:36:48.164Z,2.30
2023-03-23T19:39:22.308Z,3.10
2023-03-23T19:41:51.912Z,2.38
2023-03-23T19:44:19.600Z,2.55
2023-03-23T19:46:48.039Z,2.70
2023-03-23T19:49:16.188Z,2.70
2023-03-23T19:51:45.978Z,3.05
2023-03-23T19:54:14.140Z,2.78
2023-03-23T19:56:43.189Z,2.38
2023-03-23T19:59:15.538Z,2.80
2023-03-23T20:01:45.341Z,2.70
2023-03-23T20:04:13.502Z,2.80
2023-03-23T20:06:41.526Z,2.50
2023-03-23T20:09:09.490Z,2.85
2023-03-23T20:11:37.769Z,2.60
2023-03-23T20:14:05.669Z,2.88
2023-03-23T20:16:35.698Z,3.05
2023-03-23T20:19:05.309Z,2.70
2023-03-23T20:21:33.774Z,2.80
2023-03-23T20:24:01.670Z,2.70
2023-03-23T20:26:33.362Z,2.85
2023-03-23T20:29:01.726Z,3.05
2023-03-23T20:31:33.622Z,2.80
2023-03-23T20:34:13.014Z,2.55
2023-03-23T20:36:42.423Z,3.03
2023-03-23T20:39:13.674Z,3.35
2023-03-23T20:41:43.544Z,2.90
2023-03-23T20:44:15.861Z,2.95
2023-03-23T20:46:44.345Z,3.20
2023-03-23T20:49:13.899Z,3.05
2023-03-23T20:51:41.610Z,3.30
2023-03-23T20:54:10.100Z,2.80
2023-03-23T20:56:40.307Z,2.58
2023-03-23T20:59:08.220Z,3.00
2023-03-23T21:01:37.224Z,3.10
2023-03-23T21:04:05.103Z,3.30
2023-03-23T21:06:36.475Z,2.78
2023-03-23T21:09:08.738Z,2.60
2023-03-23T21:11:37.089Z,2.63
2023-03-23T21:14:06.600Z,2.65
2023-03-23T21:16:35.138Z,3.05
2023-03-23T21:19:07.313Z,3.25
2023-03-23T21:21:37.327Z,3.05
2023-03-23T21:24:05.687Z,3.22
2023-03-23T21:26:34.018Z,3.03
2023-03-23T21:29:02.331Z,2.80
2023-03-23T21:31:33.078Z,3.00
2023-03-23T21:34:01.346Z,3.03
2023-03-23T21:36:30.108Z,2.88
2023-03-23T21:39:02.228Z,2.63
2023-03-23T21:41:42.575Z,2.67
2023-03-23T21:44:11.164Z,3.05
2023-03-23T21:46:39.522Z,3.10
2023-03-23T21:49:10.071Z,3.55
2023-03-23T21:51:38.883Z,3.35
2023-03-23T21:54:08.064Z,3.53
2023-03-23T21:56:35.871Z,3.70
2023-03-23T21:59:04.733Z,3.30
2023-03-23T22:01:33.609Z,3.88
2023-03-23T22:04:01.490Z,4.32
2023-03-23T22:06:30.985Z,3.70
2023-03-23T22:08:59.113Z,4.10
2023-03-23T22:11:31.135Z,3.60
2023-03-23T22:13:59.606Z,3.53
2023-03-23T22:16:27.578Z,3.50
2023-03-23T22:18:57.547Z,3.90
2023-03-23T22:21:27.644Z,4.28
2023-03-23T22:23:57.818Z,4.10
2023-03-23T22:26:27.669Z,3.97
2023-03-23T22:28:57.789Z,4.10
2023-03-23T22:31:28.223Z,4.22
2023-03-23T22:33:57.756Z,4.22
2023-03-23T22:36:27.072Z,3.88
2023-03-23T22:39:02.281Z,4.00
2023-03-23T22:41:35.501Z,4.13
2023-03-23T22:44:05.298Z,3.80
2023-03-23T22:46:33.454Z,4.28
2023-03-23T22:49:01.295Z,4.50
2023-03-23T22:51:29.099Z,4.22
2023-03-23T23:02:19.988Z,4.05
2023-03-23T23:04:47.807Z,4.35
2023-03-23T23:07:16.081Z,4.22
2023-03-23T23:09:45.110Z,4.03
2023-03-23T23:12:14.881Z,4.47
2023-03-23T23:14:44.728Z,4.85
2023-03-23T23:17:13.951Z,4.25
2023-03-23T23:19:42.048Z,3.65
2023-03-23T23:22:18.947Z,4.32
2023-03-23T23:24:47.420Z,4.22
2023-03-23T23:27:15.618Z,4.13
2023-03-23T23:29:43.650Z,3.90
2023-03-23T23:32:13.046Z,3.75
2023-03-23T23:34:41.127Z,3.60
2023-03-23T23:37:09.201Z,3.78
2023-03-23T23:39:38.423Z,3.40
2023-03-23T23:42:06.612Z,3.70
2023-03-23T23:44:34.418Z,3.80
2023-03-23T23:47:02.483Z,4.10
2023-03-23T23:49:34.054Z,3.90
2023-03-23T23:52:01.888Z,4.13
2023-03-23T23:54:30.715Z,3.58
2023-03-23T23:56:59.240Z,3.83
2023-03-23T23:59:27.460Z,3.58
